createdAt,value
2023-01-31T00:00:30.765Z,97416.53
2023-01-31T00:02:32.112Z,97421.75
2023-01-31T00:04:33.482Z,97430.34
2023-01-31T00:06:35.128Z,97416.06
2023-01-31T00:08:36.476Z,97417.03
2023-01-31T00:10:37.812Z,97433.38
2023-01-31T00:12:39.158Z,97424.94
2023-01-31T00:14:40.498Z,97417.38
2023-01-31T00:16:41.823Z,97433.72
2023-01-31T00:18:43.159Z,97432.09
2023-01-31T00:20:44.457Z,97427.06
2023-01-31T00:22:45.759Z,97423.78
2023-01-31T00:24:47.127Z,97418.78
2023-01-31T00:26:49.004Z,97462.19
2023-01-31T00:28:50.349Z,97462.28
2023-01-31T00:30:51.706Z,97470.00
2023-01-31T00:32:53.024Z,97458.22
2023-01-31T00:34:54.635Z,97463.41
2023-01-31T00:36:55.962Z,97480.50
2023-01-31T00:38:57.279Z,97473.75
2023-01-31T00:40:58.612Z,97500.25
2023-01-31T00:42:59.912Z,97485.03
2023-01-31T00:45:01.218Z,97478.25
2023-01-31T00:47:02.554Z,97485.94
2023-01-31T00:49:04.005Z,97482.69
2023-01-31T00:51:05.311Z,97492.03
2023-01-31T00:53:06.598Z,97484.47
2023-01-31T00:55:08.257Z,97509.13
2023-01-31T00:57:09.597Z,97505.66
2023-01-31T00:59:10.927Z,97478.44
2023-01-31T01:01:12.319Z,97493.66
2023-01-31T01:03:13.716Z,97501.16
2023-01-31T01:05:15.015Z,97495.06
2023-01-31T01:07:16.306Z,97494.97
2023-01-31T01:09:17.710Z,97494.00
2023-01-31T01:11:19.038Z,97502.47
2023-01-31T01:13:20.371Z,97503.25
2023-01-31T01:15:22.047Z,97500.59
2023-01-31T01:17:23.591Z,97498.81
2023-01-31T01:19:24.928Z,97512.34
2023-01-31T01:21:26.267Z,97510.59
2023-01-31T01:23:27.558Z,97519.88
2023-01-31T01:25:28.854Z,97510.56
2023-01-31T01:27:30.324Z,97532.72
2023-01-31T01:29:31.691Z,97529.22
2023-01-31T01:31:33.143Z,97529.25
2023-01-31T01:33:34.491Z,97521.66
2023-01-31T01:35:36.271Z,97531.91
2023-01-31T01:37:37.630Z,97543.00
2023-01-31T01:39:38.988Z,97530.31
2023-01-31T01:41:40.412Z,97532.91
2023-01-31T01:43:41.768Z,97549.13
2023-01-31T01:45:43.094Z,97551.72
2023-01-31T01:47:45.389Z,97537.34
2023-01-31T01:49:46.705Z,97546.72
2023-01-31T01:51:48.029Z,97551.13
2023-01-31T01:53:49.346Z,97556.22
2023-01-31T01:55:50.626Z,97557.88
2023-01-31T01:57:51.929Z,97552.00
2023-01-31T01:59:53.236Z,97571.66
2023-01-31T02:01:54.607Z,97565.75
2023-01-31T02:03:55.951Z,97550.53
2023-01-31T02:05:57.246Z,97565.06
2023-01-31T02:07:58.538Z,97576.13
2023-01-31T02:09:59.874Z,97571.88
2023-01-31T02:12:02.206Z,97574.38
2023-01-31T02:14:03.625Z,97560.72
2023-01-31T02:16:04.983Z,97569.31
2023-01-31T02:18:06.301Z,97565.09
2023-01-31T02:20:07.604Z,97571.03
2023-01-31T02:22:08.949Z,97575.25
2023-01-31T02:24:10.259Z,97576.06
2023-01-31T02:26:11.663Z,97565.84
2023-01-31T02:28:13.109Z,97577.75
2023-01-31T02:30:14.414Z,97575.13
2023-01-31T02:32:15.726Z,97573.34
2023-01-31T02:34:17.140Z,97589.41
2023-01-31T02:36:18.461Z,97595.25
2023-01-31T02:38:19.774Z,97600.34
2023-01-31T02:40:21.654Z,97614.81
2023-01-31T02:42:23.049Z,97609.63
2023-01-31T02:44:42.900Z,97614.75
2023-01-31T02:46:44.194Z,97615.56
2023-01-31T02:48:45.492Z,97623.94
2023-01-31T02:50:46.838Z,97617.84
2023-01-31T02:52:48.174Z,97624.50
2023-01-31T02:55:08.152Z,97616.84
2023-01-31T02:57:09.443Z,97627.94
2023-01-31T02:59:10.766Z,97627.94
2023-01-31T03:01:12.191Z,97636.50
2023-01-31T03:03:14.236Z,97625.50
2023-01-31T03:05:15.993Z,97630.59
2023-01-31T03:07:17.300Z,97634.88
2023-01-31T03:09:22.649Z,97657.84
2023-01-31T03:11:23.978Z,97650.94
2023-01-31T03:13:25.366Z,97661.25
2023-01-31T03:15:26.706Z,97658.75
2023-01-31T03:17:33.990Z,97665.72
2023-01-31T03:19:35.305Z,97668.34
2023-01-31T03:21:36.606Z,97673.53
2023-01-31T03:23:38.498Z,97671.84
2023-01-31T03:25:39.838Z,97673.66
2023-01-31T03:27:41.175Z,97677.94
2023-01-31T03:29:42.548Z,97689.06
2023-01-31T03:31:43.909Z,97679.72
2023-01-31T03:33:45.492Z,97683.97
2023-01-31T03:35:46.794Z,97678.09
2023-01-31T03:37:48.653Z,97691.72
2023-01-31T03:39:49.950Z,97690.84
2023-01-31T03:41:51.294Z,97697.53
2023-01-31T03:43:52.767Z,97694.13
2023-01-31T03:45:54.094Z,97697.59
2023-01-31T03:47:55.516Z,97698.44
2023-01-31T03:49:56.817Z,97698.44
2023-01-31T03:51:58.146Z,97712.81
2023-01-31T03:53:59.442Z,97702.56
2023-01-31T03:56:00.734Z,97711.78
2023-01-31T03:58:02.239Z,97708.50
2023-01-31T04:00:04.513Z,97717.16
2023-01-31T04:02:05.890Z,97712.22
2023-01-31T04:04:07.230Z,97720.06
2023-01-31T04:06:08.522Z,97708.16
2023-01-31T04:08:09.810Z,97714.97
2023-01-31T04:10:12.186Z,97722.69
2023-01-31T04:12:14.019Z,97715.81
2023-01-31T04:14:16.008Z,97719.22
2023-01-31T04:16:17.471Z,97730.09
2023-01-31T04:18:18.789Z,97723.16
2023-01-31T04:20:20.109Z,97729.84
2023-01-31T04:22:21.451Z,97713.47
2023-01-31T04:24:22.786Z,97713.38
2023-01-31T04:26:24.224Z,97713.25
2023-01-31T04:28:25.542Z,97716.53
2023-01-31T04:30:26.893Z,97718.88
2023-01-31T04:32:28.194Z,97716.16
2023-01-31T04:34:29.522Z,97727.09
2023-01-31T04:36:30.827Z,97728.78
2023-01-31T04:38:32.120Z,97729.69
2023-01-31T04:40:33.969Z,97731.50
2023-01-31T04:42:35.438Z,97716.22
2023-01-31T04:44:36.777Z,97724.75
2023-01-31T04:46:38.108Z,97723.97
2023-01-31T04:48:41.346Z,97724.81
2023-01-31T04:50:42.810Z,97729.06
2023-01-31T04:52:44.425Z,97737.75
2023-01-31T04:54:45.737Z,97731.91
2023-01-31T04:56:47.095Z,97735.38
2023-01-31T04:58:48.483Z,97723.53
2023-01-31T05:00:49.815Z,97738.22
2023-01-31T05:02:51.380Z,97735.75
2023-01-31T05:04:52.780Z,97744.31
2023-01-31T05:06:54.210Z,97743.63
2023-01-31T05:08:55.507Z,97746.38
2023-01-31T05:10:56.847Z,97745.69
2023-01-31T05:12:58.383Z,97652.81
2023-01-31T05:14:59.694Z,97749.41
2023-01-31T05:17:01.038Z,97740.13
2023-01-31T05:19:02.367Z,97743.56
2023-01-31T05:21:03.989Z,97736.00
2023-01-31T05:23:05.322Z,97752.94
2023-01-31T05:25:06.671Z,97741.09
2023-01-31T05:27:08.014Z,97735.91
2023-01-31T05:29:09.488Z,97744.28
2023-01-31T05:31:13.219Z,97729.66
2023-01-31T05:33:14.737Z,97735.44
2023-01-31T05:35:16.264Z,97735.31
2023-01-31T05:37:17.645Z,97738.59
2023-01-31T05:39:18.987Z,97750.22
2023-01-31T05:41:20.330Z,97744.06
2023-01-31T05:43:21.696Z,97738.78
2023-01-31T05:45:23.310Z,97742.84
2023-01-31T05:47:24.907Z,97745.03
2023-01-31T05:49:26.268Z,97747.31
2023-01-31T05:51:27.659Z,97751.47
2023-01-31T05:53:28.991Z,97753.03
2023-01-31T05:55:30.340Z,97746.19
2023-01-31T05:57:32.216Z,97756.50
2023-01-31T05:59:33.771Z,97754.81
2023-01-31T06:01:35.114Z,97753.25
2023-01-31T06:03:36.496Z,97758.44
2023-01-31T06:05:40.286Z,97753.47
2023-01-31T06:07:41.646Z,97757.00
2023-01-31T06:09:43.107Z,97763.69
2023-01-31T06:11:44.697Z,97768.03
2023-01-31T06:13:46.119Z,97766.47
2023-01-31T06:15:47.442Z,97767.47
2023-01-31T06:17:48.738Z,97765.84
2023-01-31T06:19:50.111Z,97777.84
2023-01-31T06:21:51.402Z,97776.22
2023-01-31T06:23:55.849Z,97778.88
2023-01-31T06:25:57.150Z,97766.25
2023-01-31T06:27:58.500Z,97762.06
2023-01-31T06:29:59.848Z,97777.44
2023-01-31T06:32:02.179Z,97781.75
2023-01-31T06:34:03.739Z,97786.91
2023-01-31T06:36:05.084Z,97780.16
2023-01-31T06:38:06.523Z,97792.91
2023-01-31T06:40:07.846Z,97793.75
2023-01-31T06:42:09.172Z,97795.47
2023-01-31T06:44:10.522Z,97799.84
2023-01-31T06:46:12.211Z,97787.16
2023-01-31T06:48:13.606Z,97786.34
2023-01-31T06:50:14.914Z,97785.44
2023-01-31T06:52:16.211Z,97797.28
2023-01-31T06:54:17.546Z,97788.44
2023-01-31T06:56:18.842Z,97795.06
2023-01-31T06:58:20.843Z,97792.53
2023-01-31T07:00:22.369Z,97800.22
2023-01-31T07:02:23.734Z,97791.50
2023-01-31T07:04:25.285Z,97797.41
2023-01-31T07:06:26.615Z,97791.31
2023-01-31T07:08:27.908Z,97800.63
2023-01-31T07:10:31.515Z,97798.84
2023-01-31T07:12:32.826Z,97794.56
2023-01-31T07:14:34.123Z,97798.00
2023-01-31T07:16:37.744Z,97786.84
2023-01-31T07:18:39.084Z,97786.06
2023-01-31T07:20:40.373Z,97782.63
2023-01-31T07:22:41.702Z,97795.41
2023-01-31T07:24:43.046Z,97805.66
2023-01-31T07:26:44.476Z,97801.53
2023-01-31T07:28:45.831Z,97814.38
2023-01-31T07:30:48.481Z,97806.78
2023-01-31T07:32:50.148Z,97812.72
2023-01-31T07:34:51.484Z,97806.00
2023-01-31T07:36:52.819Z,97813.59
2023-01-31T07:38:55.004Z,97817.84
2023-01-31T07:40:56.317Z,97817.94
2023-01-31T07:42:57.612Z,97804.34
2023-01-31T07:44:59.863Z,97814.63
2023-01-31T07:47:04.006Z,97814.75
2023-01-31T07:49:05.332Z,97817.38
2023-01-31T07:51:06.682Z,97824.19
2023-01-31T07:53:07.975Z,97814.91
2023-01-31T07:55:09.273Z,97819.22
2023-01-31T07:57:10.583Z,97837.97
2023-01-31T07:59:13.592Z,97828.72
2023-01-31T08:01:34.072Z,97828.75
2023-01-31T08:03:36.410Z,97836.44
2023-01-31T08:05:37.751Z,97834.75
2023-01-31T08:07:39.162Z,97841.53
2023-01-31T08:09:40.668Z,97836.31
2023-01-31T08:11:42.339Z,97845.59
2023-01-31T08:13:43.822Z,97840.28
2023-01-31T08:15:45.438Z,97840.50
2023-01-31T08:17:46.755Z,97842.41
2023-01-31T08:19:48.099Z,97836.75
2023-01-31T08:21:49.426Z,97845.69
2023-01-31T08:23:50.741Z,97825.44
2023-01-31T08:25:52.050Z,97832.38
2023-01-31T08:27:53.472Z,97814.44
2023-01-31T08:29:54.869Z,97821.31
2023-01-31T08:31:56.352Z,97825.59
2023-01-31T08:33:57.813Z,97822.19
2023-01-31T08:35:59.449Z,97829.84
2023-01-31T08:38:15.352Z,97834.97
2023-01-31T08:40:17.587Z,97832.38
2023-01-31T08:42:18.985Z,97831.53
2023-01-31T08:44:20.647Z,97834.97
2023-01-31T08:46:22.045Z,97832.44
2023-01-31T08:48:23.402Z,97833.44
2023-01-31T08:50:27.985Z,97837.78
2023-01-31T08:52:29.458Z,97838.72
2023-01-31T08:54:31.334Z,97835.41
2023-01-31T08:56:32.778Z,97845.72
2023-01-31T08:58:34.125Z,97848.34
2023-01-31T09:00:35.743Z,97837.28
2023-01-31T09:02:37.129Z,97834.19
2023-01-31T09:04:38.415Z,97846.47
2023-01-31T09:06:40.001Z,97844.38
2023-01-31T09:08:41.340Z,97848.19
2023-01-31T09:10:42.675Z,97851.94
2023-01-31T09:12:43.976Z,97852.19
2023-01-31T09:14:45.308Z,97858.19
2023-01-31T09:16:46.808Z,97844.91
2023-01-31T09:18:48.363Z,97849.00
2023-01-31T09:20:49.715Z,97837.50
2023-01-31T09:22:51.035Z,97845.94
2023-01-31T09:24:52.391Z,97862.09
2023-01-31T09:26:55.465Z,97842.44
2023-01-31T09:28:57.967Z,97857.06
2023-01-31T09:30:59.346Z,97848.69
2023-01-31T09:33:01.654Z,97862.38
2023-01-31T09:35:02.979Z,97858.19
2023-01-31T09:37:04.292Z,97851.22
2023-01-31T09:39:05.658Z,97847.88
2023-01-31T09:41:07.018Z,97845.38
2023-01-31T09:43:08.318Z,97850.97
2023-01-31T09:45:09.616Z,97834.53
2023-01-31T09:47:10.982Z,97838.16
2023-01-31T09:49:12.370Z,97826.91
2023-01-31T09:51:13.695Z,97829.13
2023-01-31T09:53:15.004Z,97830.69
2023-01-31T09:55:16.379Z,97828.81
2023-01-31T09:57:17.699Z,97806.56
2023-01-31T09:59:19.022Z,97804.84
2023-01-31T10:01:20.392Z,97803.56
2023-01-31T10:03:21.698Z,97809.44
2023-01-31T10:05:23.284Z,97801.03
2023-01-31T10:07:24.805Z,97815.78
2023-01-31T10:09:27.322Z,97806.41
2023-01-31T10:11:29.399Z,97799.81
2023-01-31T10:13:31.732Z,97809.00
2023-01-31T10:15:33.078Z,97789.06
2023-01-31T10:17:34.597Z,97796.25
2023-01-31T10:19:36.182Z,97794.63
2023-01-31T10:21:37.503Z,97787.09
2023-01-31T10:23:38.850Z,97776.22
2023-01-31T10:25:40.349Z,97780.81
2023-01-31T10:27:41.680Z,97791.81
2023-01-31T10:29:43.018Z,97798.47
2023-01-31T10:31:44.567Z,97794.53
2023-01-31T10:33:45.996Z,97792.38
2023-01-31T10:35:47.325Z,97794.72
2023-01-31T10:37:48.675Z,97800.28
2023-01-31T10:39:49.972Z,97795.84
2023-01-31T10:41:51.295Z,97780.94
2023-01-31T10:43:52.747Z,97786.28
2023-01-31T10:45:54.082Z,97782.19
2023-01-31T10:48:05.558Z,97775.53
2023-01-31T10:50:08.068Z,97778.22
2023-01-31T10:52:09.405Z,97774.94
2023-01-31T10:54:13.089Z,97779.28
2023-01-31T10:56:14.478Z,97778.50
2023-01-31T10:58:15.795Z,97784.59
2023-01-31T11:00:17.094Z,97778.72
2023-01-31T11:02:18.404Z,97772.84
2023-01-31T11:04:19.715Z,97775.38
2023-01-31T11:06:21.072Z,97781.38
2023-01-31T11:08:22.375Z,97775.31
2023-01-31T11:10:23.998Z,97768.44
2023-01-31T11:12:25.423Z,97768.31
2023-01-31T11:14:26.747Z,97769.88
2023-01-31T11:16:28.228Z,97763.91
2023-01-31T11:18:29.582Z,97766.22
2023-01-31T11:20:30.945Z,97759.28
2023-01-31T11:22:32.233Z,97754.97
2023-01-31T11:24:33.548Z,97736.09
2023-01-31T11:26:34.944Z,97750.69
2023-01-31T11:28:36.362Z,97741.31
2023-01-31T11:30:37.723Z,97746.19
2023-01-31T11:32:39.091Z,97739.25
2023-01-31T11:34:40.453Z,97722.97
2023-01-31T11:36:41.810Z,97721.91
2023-01-31T11:38:43.213Z,97715.91
2023-01-31T11:40:44.514Z,97712.44
2023-01-31T11:42:45.813Z,97708.16
2023-01-31T11:44:47.675Z,97715.88
2023-01-31T11:46:49.010Z,97706.47
2023-01-31T11:48:50.320Z,97704.81
2023-01-31T11:50:51.630Z,97703.06
2023-01-31T11:52:52.945Z,97703.16
2023-01-31T11:54:54.238Z,97698.97
2023-01-31T11:56:56.466Z,97697.34
2023-01-31T11:58:57.794Z,97700.69
2023-01-31T12:00:59.125Z,97704.06
2023-01-31T12:03:01.108Z,97691.28
2023-01-31T12:05:02.529Z,97689.53
2023-01-31T12:07:03.881Z,97679.47
2023-01-31T12:09:05.229Z,97668.56
2023-01-31T12:11:06.550Z,97675.56
2023-01-31T12:13:18.098Z,97668.91
2023-01-31T12:15:20.360Z,97663.94
2023-01-31T12:17:21.961Z,97654.72
2023-01-31T12:19:25.598Z,97653.97
2023-01-31T12:21:26.931Z,97652.81
2023-01-31T12:23:28.263Z,97643.59
2023-01-31T12:25:29.678Z,97628.66
2023-01-31T12:27:30.985Z,97624.72
2023-01-31T12:29:32.303Z,97617.34
2023-01-31T12:31:33.625Z,97616.94
2023-01-31T12:33:34.975Z,97615.38
2023-01-31T12:35:36.300Z,97602.53
2023-01-31T12:37:37.651Z,97609.28
2023-01-31T12:39:38.958Z,97607.50
2023-01-31T12:41:40.701Z,97599.69
2023-01-31T12:43:42.088Z,97598.75
2023-01-31T12:45:43.429Z,97590.91
2023-01-31T12:47:44.798Z,97577.97
2023-01-31T12:49:46.118Z,97580.31
2023-01-31T12:51:47.455Z,97576.75
2023-01-31T12:53:48.745Z,97573.97
2023-01-31T12:55:50.093Z,97573.03
2023-01-31T12:57:51.408Z,97568.69
2023-01-31T12:59:52.802Z,97559.28
2023-01-31T13:01:54.185Z,97558.34
2023-01-31T13:03:55.524Z,97559.16
2023-01-31T13:05:56.896Z,97556.53
2023-01-31T13:07:58.241Z,97547.97
2023-01-31T13:09:59.531Z,97535.34
2023-01-31T13:12:02.021Z,97533.84
2023-01-31T13:14:03.533Z,97529.84
2023-01-31T13:16:04.858Z,97530.06
2023-01-31T13:18:06.268Z,97521.84
2023-01-31T13:20:07.595Z,97529.72
2023-01-31T13:22:08.926Z,97520.56
2023-01-31T13:24:10.252Z,97525.69
2023-01-31T13:26:11.547Z,97527.47
2023-01-31T13:28:12.829Z,97524.94
2023-01-31T13:30:14.174Z,97537.63
2023-01-31T13:32:15.578Z,97523.16
2023-01-31T13:34:16.878Z,97519.66
2023-01-31T13:36:18.211Z,97499.25
2023-01-31T13:38:19.555Z,97498.38
2023-01-31T13:40:21.065Z,97507.63
2023-01-31T13:42:22.420Z,97490.66
2023-01-31T13:44:23.759Z,97498.31
2023-01-31T13:46:25.073Z,97499.97
2023-01-31T13:48:26.456Z,97496.47
2023-01-31T13:50:27.763Z,97493.97
2023-01-31T13:52:29.061Z,97488.00
2023-01-31T13:54:30.354Z,97472.72
2023-01-31T13:56:31.702Z,97473.50
2023-01-31T13:58:34.409Z,97470.03
2023-01-31T14:00:36.680Z,97465.75
2023-01-31T14:02:38.114Z,97474.19
2023-01-31T14:04:40.562Z,97475.03
2023-01-31T14:06:41.979Z,97470.63
2023-01-31T14:08:43.326Z,97469.81
2023-01-31T14:10:44.631Z,97474.94
2023-01-31T14:12:45.967Z,97490.97
2023-01-31T14:14:47.282Z,97496.88
2023-01-31T14:16:51.688Z,97482.38
2023-01-31T14:18:54.170Z,97484.94
2023-01-31T14:20:55.463Z,97480.66
2023-01-31T14:22:56.760Z,97481.34
2023-01-31T14:24:59.965Z,97467.75
2023-01-31T14:27:01.275Z,97477.09
2023-01-31T14:29:02.616Z,97483.13
2023-01-31T14:31:03.958Z,97477.19
2023-01-31T14:33:05.426Z,97464.31
2023-01-31T14:35:06.724Z,97461.78
2023-01-31T14:37:08.010Z,97460.06
2023-01-31T14:39:09.315Z,97468.66
2023-01-31T14:41:10.612Z,97458.47
2023-01-31T14:43:11.953Z,97461.88
2023-01-31T14:45:13.960Z,97463.66
2023-01-31T14:47:15.299Z,97456.91
2023-01-31T14:49:16.638Z,97463.78
2023-01-31T14:51:17.923Z,97463.81
2023-01-31T14:53:19.229Z,97462.25
2023-01-31T14:55:21.281Z,97458.94
2023-01-31T14:57:22.894Z,97458.16
2023-01-31T14:59:24.200Z,97450.53
2023-01-31T15:01:31.653Z,97459.19
2023-01-31T15:03:33.108Z,97444.03
2023-01-31T15:05:34.491Z,97451.69
2023-01-31T15:07:35.807Z,97455.13
2023-01-31T15:09:37.237Z,97447.47
2023-01-31T15:11:42.828Z,97439.03
2023-01-31T15:13:44.289Z,97439.09
2023-01-31T15:15:45.592Z,97446.78
2023-01-31T15:17:46.891Z,97436.56
2023-01-31T15:19:48.515Z,97437.41
2023-01-31T15:21:53.198Z,97426.34
2023-01-31T15:23:54.617Z,97431.44
2023-01-31T15:25:55.924Z,97426.28
2023-01-31T15:27:57.673Z,97421.06
2023-01-31T15:29:59.048Z,97415.94
2023-01-31T15:32:00.393Z,97422.69
2023-01-31T15:34:01.809Z,97420.00
2023-01-31T15:36:05.322Z,97415.66
2023-01-31T15:38:06.895Z,97416.31
2023-01-31T15:40:08.228Z,97416.31
2023-01-31T15:42:09.550Z,97415.41
2023-01-31T15:44:10.840Z,97417.03
2023-01-31T15:46:18.072Z,97424.66
2023-01-31T15:48:19.478Z,97425.53
2023-01-31T15:50:20.825Z,97422.84
2023-01-31T15:52:25.398Z,97427.06
2023-01-31T15:54:26.748Z,97431.25
2023-01-31T15:56:28.697Z,97431.22
2023-01-31T15:58:30.081Z,97433.75
2023-01-31T16:00:31.445Z,97433.66
2023-01-31T16:02:38.590Z,97437.03
2023-01-31T16:04:39.926Z,97432.84
2023-01-31T16:06:41.242Z,97425.16
2023-01-31T16:08:45.323Z,97437.09
2023-01-31T16:10:46.655Z,97433.69
2023-01-31T16:12:47.967Z,97432.00
2023-01-31T16:14:49.337Z,97439.69
2023-01-31T16:16:50.686Z,97433.75
2023-01-31T16:18:55.003Z,97435.63
2023-01-31T16:20:57.785Z,97428.94
2023-01-31T16:22:59.180Z,97438.34
2023-01-31T16:25:03.256Z,97429.00
2023-01-31T16:27:04.577Z,97432.47
2023-01-31T16:29:08.831Z,97424.00
2023-01-31T16:31:10.425Z,97429.19
2023-01-31T16:33:11.788Z,97425.00
2023-01-31T16:35:13.489Z,97434.41
2023-01-31T16:37:16.703Z,97429.41
2023-01-31T16:39:18.043Z,97422.56
2023-01-31T16:41:19.334Z,97422.63
2023-01-31T16:43:20.677Z,97416.66
2023-01-31T16:45:22.234Z,97405.75
2023-01-31T16:47:23.758Z,97415.09
2023-01-31T16:49:25.170Z,97445.72
2023-01-31T16:51:29.379Z,97421.06
2023-01-31T16:53:30.749Z,97432.06
2023-01-31T16:55:35.097Z,97428.72
2023-01-31T16:57:38.372Z,97424.41
2023-01-31T16:59:40.988Z,97426.88
2023-01-31T17:01:42.454Z,97440.47
2023-01-31T17:03:43.827Z,97443.78
2023-01-31T17:05:48.033Z,97440.25
2023-01-31T17:07:49.371Z,97443.56
2023-01-31T17:09:50.677Z,97446.03
2023-01-31T17:11:52.120Z,97448.50
2023-01-31T17:13:53.419Z,97439.03
2023-01-31T17:15:54.781Z,97435.72
2023-01-31T17:17:56.101Z,97439.00
2023-01-31T17:19:57.423Z,97431.31
2023-01-31T17:21:59.972Z,97426.19
2023-01-31T17:24:10.115Z,97434.63
2023-01-31T17:26:11.412Z,97428.66
2023-01-31T17:28:12.734Z,97445.78
2023-01-31T17:30:14.138Z,97439.69
2023-01-31T17:32:15.502Z,97443.03
2023-01-31T17:34:19.708Z,97446.53
2023-01-31T17:36:21.014Z,97439.69
2023-01-31T17:38:22.334Z,97441.44
2023-01-31T17:40:23.695Z,97444.06
2023-01-31T17:42:25.020Z,97441.50
2023-01-31T17:44:26.323Z,97434.72
2023-01-31T17:46:28.383Z,97436.44
2023-01-31T17:48:29.813Z,97427.06
2023-01-31T17:50:34.116Z,97423.66
2023-01-31T17:52:35.417Z,97405.88
2023-01-31T17:54:39.376Z,97426.38
2023-01-31T17:56:40.731Z,97403.47
2023-01-31T17:58:42.031Z,97406.97
2023-01-31T18:00:46.060Z,97412.25
2023-01-31T18:02:47.610Z,97400.66
2023-01-31T18:04:49.045Z,97406.00
2023-01-31T18:06:50.378Z,97409.66
2023-01-31T18:08:54.367Z,97398.84
2023-01-31T18:10:55.701Z,97399.91
2023-01-31T18:12:57.001Z,97391.53
2023-01-31T18:14:58.322Z,97389.06
2023-01-31T18:16:59.915Z,97392.47
2023-01-31T18:19:03.966Z,97394.06
2023-01-31T18:21:05.576Z,97388.00
2023-01-31T18:23:06.881Z,97390.34
2023-01-31T18:25:08.223Z,97385.84
2023-01-31T18:27:09.524Z,97372.94
2023-01-31T18:29:13.026Z,97378.69
2023-01-31T18:31:15.882Z,97373.34
2023-01-31T18:33:17.383Z,97378.22
2023-01-31T18:35:21.331Z,97380.59
2023-01-31T18:37:28.705Z,97375.38
2023-01-31T18:39:30.001Z,97372.78
2023-01-31T18:41:31.290Z,97369.19
2023-01-31T18:43:32.578Z,97371.69
2023-01-31T18:45:33.878Z,97364.88
2023-01-31T18:47:35.176Z,97370.81
2023-01-31T18:49:36.466Z,97369.03
2023-01-31T18:51:37.839Z,97354.53
2023-01-31T18:53:39.157Z,97365.53
2023-01-31T18:55:40.503Z,97349.44
2023-01-31T18:57:53.849Z,97345.97
2023-01-31T18:59:55.259Z,97340.84
2023-01-31T19:01:56.591Z,97345.94
2023-01-31T19:03:58.429Z,97352.66
2023-01-31T19:05:59.776Z,97350.97
2023-01-31T19:08:01.074Z,97361.19
2023-01-31T19:10:02.423Z,97351.97
2023-01-31T19:12:06.706Z,97362.19
2023-01-31T19:14:08.055Z,97348.69
2023-01-31T19:16:09.405Z,97342.78
2023-01-31T19:18:10.824Z,97350.53
2023-01-31T19:20:12.132Z,97344.63
2023-01-31T19:22:13.501Z,97344.75
2023-01-31T19:24:15.405Z,97347.44
2023-01-31T19:26:17.220Z,97329.72
2023-01-31T19:28:22.854Z,97327.25
2023-01-31T19:30:24.265Z,97333.31
2023-01-31T19:32:25.585Z,97325.72
2023-01-31T19:34:37.258Z,97321.63
2023-01-31T19:36:38.643Z,97316.56
2023-01-31T19:38:40.130Z,97322.56
2023-01-31T19:40:41.443Z,97306.53
2023-01-31T19:42:49.084Z,97313.38
2023-01-31T19:44:50.419Z,97308.31
2023-01-31T19:46:52.167Z,97315.13
2023-01-31T19:48:53.483Z,97318.59
2023-01-31T19:50:54.897Z,97304.13
2023-01-31T19:52:56.270Z,97308.41
2023-01-31T19:54:57.606Z,97300.63
2023-01-31T19:56:58.942Z,97298.00
2023-01-31T19:59:03.321Z,97297.91
2023-01-31T20:01:04.641Z,97292.63
2023-01-31T20:03:08.880Z,97304.47
2023-01-31T20:05:16.734Z,97307.69
2023-01-31T20:07:18.048Z,97302.44
2023-01-31T20:09:20.272Z,97298.22
2023-01-31T20:11:21.800Z,97316.81
2023-01-31T20:13:23.103Z,97317.63
2023-01-31T20:15:24.403Z,97316.69
2023-01-31T20:17:25.709Z,97328.44
2023-01-31T20:19:27.522Z,97327.59
2023-01-31T20:21:28.837Z,97347.09
2023-01-31T20:23:30.154Z,97345.28
2023-01-31T20:25:34.651Z,97333.34
2023-01-31T20:27:36.139Z,97337.69
2023-01-31T20:29:37.443Z,97331.78
2023-01-31T20:31:38.814Z,97328.34
2023-01-31T20:33:40.128Z,97323.25
2023-01-31T20:35:41.451Z,97328.25
2023-01-31T20:37:42.762Z,97326.63
2023-01-31T20:39:44.109Z,97314.72
2023-01-31T20:41:45.442Z,97316.53
2023-01-31T20:43:50.460Z,97322.47
2023-01-31T20:45:51.856Z,97328.44
2023-01-31T20:47:53.188Z,97335.25
2023-01-31T20:49:54.529Z,97321.81
2023-01-31T20:51:55.842Z,97323.53
2023-01-31T20:53:58.883Z,97337.19
2023-01-31T20:56:00.852Z,97340.69
2023-01-31T20:58:02.200Z,97317.84
2023-01-31T21:00:06.872Z,97329.78
2023-01-31T21:02:08.574Z,97319.69
2023-01-31T21:04:10.058Z,97325.75
2023-01-31T21:06:14.446Z,97327.59
2023-01-31T21:08:15.796Z,97317.50
2023-01-31T21:10:17.107Z,97324.28
2023-01-31T21:12:24.571Z,97328.59
2023-01-31T21:14:25.906Z,97350.66
2023-01-31T21:16:27.281Z,97332.88
2023-01-31T21:18:28.613Z,97336.34
2023-01-31T21:20:32.627Z,97328.69
2023-01-31T21:22:34.424Z,97325.22
2023-01-31T21:24:36.767Z,97327.78
2023-01-31T21:26:38.124Z,97290.63
2023-01-31T21:28:43.803Z,97328.63
2023-01-31T21:30:45.270Z,97330.31
2023-01-31T21:32:46.708Z,97318.31
2023-01-31T21:34:48.007Z,97328.44
2023-01-31T21:36:49.303Z,97333.44
2023-01-31T21:38:51.119Z,97337.63
2023-01-31T21:41:15.421Z,97341.78
2023-01-31T21:43:16.724Z,97346.91
2023-01-31T21:45:18.032Z,97352.84
2023-01-31T21:47:19.345Z,97342.47
2023-01-31T21:49:20.648Z,97351.06
2023-01-31T21:51:24.935Z,97348.47
2023-01-31T21:53:28.989Z,97344.19
2023-01-31T21:55:30.500Z,97350.06
2023-01-31T21:57:31.795Z,97356.94
2023-01-31T21:59:33.478Z,97358.56
2023-01-31T22:01:34.854Z,97352.50
2023-01-31T22:03:36.222Z,97347.44
2023-01-31T22:05:37.569Z,97350.88
2023-01-31T22:07:40.422Z,97353.44
2023-01-31T22:09:41.722Z,97345.88
2023-01-31T22:11:43.104Z,97365.44
2023-01-31T22:13:45.225Z,97359.47
2023-01-31T22:15:46.611Z,97367.13
2023-01-31T22:17:47.961Z,97365.50
2023-01-31T22:19:49.303Z,97368.91
2023-01-31T22:21:50.599Z,97366.84
2023-01-31T22:23:51.895Z,97373.41
2023-01-31T22:25:53.742Z,97380.63
2023-01-31T22:27:57.479Z,97375.28
2023-01-31T22:30:13.877Z,97382.44
2023-01-31T22:32:16.944Z,97369.88
2023-01-31T22:34:18.262Z,97369.47
2023-01-31T22:36:19.610Z,97363.78
2023-01-31T22:38:20.900Z,97360.88
2023-01-31T22:40:25.274Z,97368.34
2023-01-31T22:42:26.567Z,97356.31
2023-01-31T22:44:27.910Z,97365.28
2023-01-31T22:46:29.330Z,97355.16
2023-01-31T22:48:30.677Z,97361.19
2023-01-31T22:50:32.034Z,97354.91
2023-01-31T22:52:33.351Z,97352.00
2023-01-31T22:54:34.645Z,97369.88
2023-01-31T22:56:36.030Z,97352.44
2023-01-31T22:58:37.366Z,97359.47
2023-01-31T23:00:38.678Z,97351.50
2023-01-31T23:02:40.029Z,97367.13
2023-01-31T23:04:41.337Z,97353.13
2023-01-31T23:06:42.671Z,97373.78
2023-01-31T23:08:44.121Z,97376.13
2023-01-31T23:10:48.552Z,97382.47
2023-01-31T23:12:49.922Z,97364.19
2023-01-31T23:14:51.226Z,97365.44
2023-01-31T23:17:11.538Z,97358.19
2023-01-31T23:19:12.874Z,97386.50
2023-01-31T23:21:14.188Z,97392.00
2023-01-31T23:23:15.538Z,97377.66
2023-01-31T23:25:16.914Z,97393.84
2023-01-31T23:27:18.215Z,97389.88
2023-01-31T23:29:19.503Z,97374.66
2023-01-31T23:31:20.908Z,97389.53
2023-01-31T23:33:22.244Z,97377.75
2023-01-31T23:35:23.579Z,97378.44
2023-01-31T23:37:24.875Z,97381.34
2023-01-31T23:39:26.169Z,97377.22
2023-01-31T23:41:27.537Z,97382.13
2023-01-31T23:43:28.887Z,97382.81
2023-01-31T23:45:30.174Z,97367.59
2023-01-31T23:47:31.478Z,97398.63
2023-01-31T23:49:32.766Z,97385.91
2023-01-31T23:51:34.088Z,97254.34